createdAt,value
2023-10-04T00:02:03.196Z,12.67
2023-10-04T00:04:34.783Z,12.74
2023-10-04T00:07:06.599Z,12.74
2023-10-04T00:09:38.121Z,12.67
2023-10-04T00:12:09.948Z,12.66
2023-10-04T00:14:41.531Z,12.71
2023-10-04T00:17:13.426Z,12.67
2023-10-04T00:19:44.948Z,12.70
2023-10-04T00:22:16.764Z,12.62
2023-10-04T00:24:48.295Z,12.62
2023-10-04T00:27:19.827Z,12.54
2023-10-04T00:29:51.370Z,12.40
2023-10-04T00:32:23.166Z,12.40
2023-10-04T00:34:55.214Z,12.33
2023-10-04T00:37:26.740Z,11.79
2023-10-04T00:39:58.755Z,12.24
2023-10-04T00:42:30.270Z,12.29
2023-10-04T00:45:02.199Z,12.28
2023-10-04T00:47:34.182Z,12.23
2023-10-04T00:50:06.036Z,12.27
2023-10-04T00:52:37.832Z,12.20
2023-10-04T00:55:09.350Z,12.19
2023-10-04T00:57:41.190Z,12.18
2023-10-04T01:00:12.731Z,12.19
2023-10-04T01:02:44.336Z,12.18
2023-10-04T01:05:15.900Z,12.15
2023-10-04T01:07:47.456Z,12.17
2023-10-04T01:10:18.961Z,12.15
2023-10-04T01:12:50.491Z,12.04
2023-10-04T01:15:22.030Z,12.06
2023-10-04T01:17:53.901Z,12.00
2023-10-04T01:20:25.477Z,11.89
2023-10-04T01:22:56.993Z,11.86
2023-10-04T01:25:28.972Z,11.79
2023-10-04T01:28:00.478Z,11.69
2023-10-04T01:30:31.996Z,11.66
2023-10-04T01:33:03.619Z,11.61
2023-10-04T01:35:35.504Z,11.51
2023-10-04T01:38:07.003Z,11.47
2023-10-04T01:40:38.746Z,11.44
2023-10-04T01:43:10.341Z,11.40
2023-10-04T01:45:42.364Z,11.34
2023-10-04T01:48:13.958Z,11.36
2023-10-04T01:50:45.531Z,11.35
2023-10-04T01:53:17.427Z,11.32
2023-10-04T01:55:49.053Z,10.61
2023-10-04T01:58:20.847Z,11.32
2023-10-04T02:00:52.399Z,11.26
2023-10-04T02:03:24.207Z,11.29
2023-10-04T02:05:55.738Z,11.25
2023-10-04T02:08:27.264Z,11.26
2023-10-04T02:10:59.071Z,11.25
2023-10-04T02:13:30.924Z,11.23
2023-10-04T02:16:02.426Z,11.21
2023-10-04T02:18:34.491Z,11.22
2023-10-04T02:21:06.083Z,11.23
2023-10-04T02:23:38.015Z,11.25
2023-10-04T02:26:09.760Z,11.30
2023-10-04T02:28:41.294Z,11.34
2023-10-04T02:31:13.218Z,11.34
2023-10-04T02:33:44.746Z,11.32
2023-10-04T02:36:16.792Z,11.31
2023-10-04T02:38:48.362Z,11.34
2023-10-04T02:41:20.172Z,11.31
2023-10-04T02:43:51.680Z,11.33
2023-10-04T02:46:23.518Z,11.29
2023-10-04T02:48:55.043Z,11.28
2023-10-04T02:51:26.985Z,11.24
2023-10-04T02:53:59.832Z,11.18
2023-10-04T02:56:31.643Z,11.18
2023-10-04T02:59:03.656Z,11.16
2023-10-04T03:01:35.417Z,11.09
2023-10-04T03:04:07.104Z,11.10
2023-10-04T03:06:38.627Z,11.09
2023-10-04T03:09:10.554Z,11.07
2023-10-04T03:11:42.117Z,11.08
2023-10-04T03:14:13.968Z,11.05
2023-10-04T03:16:45.512Z,11.02
2023-10-04T03:19:17.119Z,11.05
2023-10-04T03:21:48.657Z,11.05
2023-10-04T03:24:20.379Z,11.09
2023-10-04T03:26:51.900Z,11.08
2023-10-04T03:29:23.670Z,11.07
2023-10-04T03:31:55.178Z,11.08
2023-10-04T03:34:27.000Z,11.08
2023-10-04T03:36:58.487Z,11.09
2023-10-04T03:39:30.348Z,11.06
2023-10-04T03:42:01.917Z,11.09
2023-10-04T03:44:33.731Z,11.05
2023-10-04T03:47:05.209Z,11.00
2023-10-04T03:49:36.772Z,10.99
2023-10-04T03:52:08.301Z,10.95
2023-10-04T03:54:40.111Z,10.96
2023-10-04T03:57:11.641Z,10.92
2023-10-04T03:59:43.415Z,10.91
2023-10-04T04:02:14.901Z,10.92
2023-10-04T04:04:46.534Z,10.87
2023-10-04T04:07:18.163Z,10.82
2023-10-04T04:09:49.974Z,10.87
2023-10-04T04:12:21.512Z,10.82
2023-10-04T04:14:53.297Z,10.84
2023-10-04T04:17:24.823Z,10.80
2023-10-04T04:19:56.364Z,10.84
2023-10-04T04:22:27.865Z,10.85
2023-10-04T04:24:59.742Z,10.84
2023-10-04T04:27:31.325Z,10.83
2023-10-04T04:30:03.205Z,10.87
2023-10-04T04:32:34.793Z,10.86
2023-10-04T04:35:06.614Z,10.86
2023-10-04T04:37:38.112Z,10.88
2023-10-04T04:40:09.883Z,10.87
2023-10-04T04:42:41.442Z,10.85
2023-10-04T04:45:13.264Z,10.83
2023-10-04T04:47:44.770Z,10.79
2023-10-04T04:50:16.677Z,10.81
2023-10-04T04:52:48.186Z,10.82
2023-10-04T04:55:20.130Z,10.82
2023-10-04T04:57:51.652Z,10.83
2023-10-04T05:00:23.508Z,10.83
2023-10-04T05:02:55.068Z,10.85
2023-10-04T05:05:26.994Z,10.87
2023-10-04T05:07:58.498Z,10.88
2023-10-04T05:10:30.339Z,10.89
2023-10-04T05:13:01.875Z,10.87
2023-10-04T05:15:33.786Z,10.86
2023-10-04T05:18:05.389Z,10.91
2023-10-04T05:20:37.268Z,10.95
2023-10-04T05:23:08.778Z,10.98
2023-10-04T05:25:40.826Z,10.99
2023-10-04T05:28:12.360Z,11.06
2023-10-04T05:30:44.213Z,11.07
2023-10-04T05:33:15.815Z,11.16
2023-10-04T05:35:47.720Z,11.16
2023-10-04T05:38:19.207Z,11.18
2023-10-04T05:40:50.929Z,11.17
2023-10-04T05:43:22.429Z,11.24
2023-10-04T05:45:54.413Z,11.20
2023-10-04T05:48:25.974Z,11.25
2023-10-04T05:50:57.795Z,11.22
2023-10-04T05:53:29.304Z,11.22
2023-10-04T05:56:01.178Z,11.43
2023-10-04T05:58:32.709Z,11.40
2023-10-04T06:01:04.750Z,11.47
2023-10-04T06:03:36.478Z,11.50
2023-10-04T06:06:08.519Z,11.49
2023-10-04T06:08:40.016Z,11.47
2023-10-04T06:11:11.883Z,11.58
2023-10-04T06:13:43.469Z,11.61
2023-10-04T06:16:15.361Z,11.54
2023-10-04T06:18:46.922Z,11.67
2023-10-04T06:21:18.819Z,11.69
2023-10-04T06:23:50.368Z,11.82
2023-10-04T06:26:22.182Z,11.95
2023-10-04T06:28:53.682Z,12.02
2023-10-04T06:31:25.537Z,12.05
2023-10-04T06:33:57.083Z,12.15
2023-10-04T06:36:29.010Z,12.30
2023-10-04T06:39:00.528Z,12.46
2023-10-04T06:41:32.552Z,12.47
2023-10-04T06:44:04.056Z,12.51
2023-10-04T06:46:36.021Z,12.78
2023-10-04T06:49:07.714Z,12.76
2023-10-04T06:51:39.682Z,12.89
2023-10-04T06:54:11.257Z,12.87
2023-10-04T06:56:43.284Z,12.96
2023-10-04T06:59:14.792Z,13.26
2023-10-04T07:01:46.836Z,13.49
2023-10-04T07:04:18.428Z,13.52
2023-10-04T07:06:50.526Z,13.80
2023-10-04T07:09:22.055Z,13.83
2023-10-04T07:11:54.011Z,13.81
2023-10-04T07:14:25.515Z,13.83
2023-10-04T07:16:57.306Z,14.13
2023-10-04T07:19:28.848Z,14.13
2023-10-04T07:22:00.752Z,14.10
2023-10-04T07:24:32.292Z,14.12
2023-10-04T07:27:04.210Z,13.93
2023-10-04T07:29:35.724Z,14.40
2023-10-04T07:32:07.641Z,14.26
2023-10-04T07:34:39.174Z,14.19
2023-10-04T07:37:11.143Z,14.11
2023-10-04T07:39:42.663Z,14.47
2023-10-04T07:42:14.660Z,14.48
2023-10-04T07:44:46.236Z,14.60
2023-10-04T07:47:18.143Z,14.44
2023-10-04T07:49:49.695Z,14.56
2023-10-04T07:52:21.510Z,14.60
2023-10-04T07:54:53.033Z,14.21
2023-10-04T07:57:24.705Z,14.76
2023-10-04T07:59:56.226Z,14.99
2023-10-04T08:02:28.245Z,15.12
2023-10-04T08:04:59.755Z,15.16
2023-10-04T08:07:31.592Z,15.34
2023-10-04T08:10:03.085Z,15.57
2023-10-04T08:12:34.960Z,15.71
2023-10-04T08:15:06.531Z,16.08
2023-10-04T08:17:38.358Z,15.77
2023-10-04T08:20:09.923Z,15.87
2023-10-04T08:22:41.650Z,16.44
2023-10-04T08:25:13.170Z,16.12
2023-10-04T08:27:44.838Z,15.81
2023-10-04T08:30:16.459Z,15.77
2023-10-04T08:32:48.639Z,15.56
2023-10-04T08:35:20.177Z,15.87
2023-10-04T08:37:52.072Z,15.48
2023-10-04T08:40:23.571Z,15.93
2023-10-04T08:42:55.665Z,16.18
2023-10-04T08:45:27.343Z,16.53
2023-10-04T08:47:59.839Z,16.58
2023-10-04T08:50:31.470Z,16.47
2023-10-04T08:53:03.288Z,16.71
2023-10-04T08:55:34.811Z,16.31
2023-10-04T08:58:06.731Z,16.48
2023-10-04T09:00:38.276Z,16.49
2023-10-04T09:03:10.237Z,17.17
2023-10-04T09:05:41.777Z,16.78
2023-10-04T09:08:13.633Z,16.96
2023-10-04T09:10:45.577Z,16.50
2023-10-04T09:13:18.001Z,16.77
2023-10-04T09:15:49.674Z,16.86
2023-10-04T09:18:21.789Z,16.45
2023-10-04T09:20:53.324Z,15.93
2023-10-04T09:23:25.286Z,15.96
2023-10-04T09:25:57.440Z,16.19
2023-10-04T09:28:29.258Z,15.90
2023-10-04T09:31:00.879Z,15.85
2023-10-04T09:33:32.752Z,16.01
2023-10-04T09:36:04.290Z,16.12
2023-10-04T09:38:36.101Z,15.88
2023-10-04T09:41:07.644Z,16.16
2023-10-04T09:43:39.620Z,16.50
2023-10-04T09:46:11.579Z,16.69
2023-10-04T09:48:43.919Z,17.20
2023-10-04T09:51:16.041Z,17.53
2023-10-04T09:53:48.090Z,18.00
2023-10-04T09:56:19.615Z,17.49
2023-10-04T09:58:51.620Z,17.58
2023-10-04T10:01:23.289Z,17.67
2023-10-04T10:03:55.098Z,17.11
2023-10-04T10:06:26.666Z,17.38
2023-10-04T10:08:58.391Z,17.16
2023-10-04T10:11:29.910Z,17.21
2023-10-04T10:14:01.839Z,17.41
2023-10-04T10:16:33.424Z,17.49
2023-10-04T10:19:05.280Z,17.99
2023-10-04T10:21:36.833Z,17.58
2023-10-04T10:24:08.697Z,18.08
2023-10-04T10:26:40.217Z,18.15
2023-10-04T10:29:11.996Z,18.38
2023-10-04T10:31:43.520Z,18.19
2023-10-04T10:34:15.446Z,18.84
2023-10-04T10:36:47.146Z,17.98
2023-10-04T10:39:18.916Z,17.32
2023-10-04T10:41:50.564Z,17.23
2023-10-04T10:44:22.448Z,17.07
2023-10-04T10:46:54.476Z,17.31
2023-10-04T10:49:26.772Z,17.87
2023-10-04T10:51:58.262Z,19.02
2023-10-04T10:54:30.246Z,19.34
2023-10-04T10:57:01.771Z,18.94
2023-10-04T10:59:33.457Z,18.96
2023-10-04T11:02:04.995Z,18.11
2023-10-04T11:04:36.880Z,18.00
2023-10-04T11:07:08.445Z,18.65
2023-10-04T11:09:44.712Z,19.06
2023-10-04T11:12:18.489Z,18.57
2023-10-04T11:14:50.342Z,18.07
2023-10-04T11:17:21.853Z,17.68
2023-10-04T11:19:53.687Z,17.52
2023-10-04T11:22:25.228Z,17.89
2023-10-04T11:24:57.000Z,17.43
2023-10-04T11:27:30.724Z,18.09
2023-10-04T11:30:02.859Z,18.43
2023-10-04T11:32:34.382Z,18.45
2023-10-04T11:35:06.458Z,18.52
2023-10-04T11:37:37.995Z,18.31
2023-10-04T11:40:09.702Z,17.87
2023-10-04T11:42:41.320Z,18.36
2023-10-04T11:45:13.170Z,18.60
2023-10-04T11:47:44.742Z,18.74
2023-10-04T11:50:16.615Z,18.06
2023-10-04T11:52:48.109Z,18.40
2023-10-04T11:55:20.070Z,18.92
2023-10-04T11:57:51.828Z,19.35
2023-10-04T12:00:24.026Z,19.58
2023-10-04T12:02:55.652Z,19.73
2023-10-04T12:05:27.633Z,19.38
2023-10-04T12:07:59.117Z,19.54
2023-10-04T12:10:31.047Z,19.12
2023-10-04T12:13:02.575Z,19.67
2023-10-04T12:18:22.084Z,18.42
2023-10-04T12:20:53.909Z,18.31
2023-10-04T12:23:25.429Z,17.75
2023-10-04T12:25:57.308Z,17.85
2023-10-04T12:28:28.984Z,18.08
2023-10-04T12:31:00.945Z,18.33
2023-10-04T12:33:32.656Z,18.39
2023-10-04T12:36:04.678Z,18.16
2023-10-04T12:38:36.194Z,18.38
2023-10-04T12:41:07.943Z,18.51
2023-10-04T12:43:39.443Z,18.29
2023-10-04T12:46:11.222Z,18.34
2023-10-04T12:48:42.958Z,18.16
2023-10-04T12:51:15.100Z,18.07
2023-10-04T12:53:46.588Z,17.65
2023-10-04T12:56:18.625Z,17.44
2023-10-04T12:58:50.118Z,17.51
2023-10-04T13:01:22.029Z,17.70
2023-10-04T13:03:53.675Z,17.49
2023-10-04T13:06:25.827Z,17.49
2023-10-04T13:08:57.357Z,17.80
2023-10-04T13:11:29.104Z,17.49
2023-10-04T13:14:00.634Z,17.65
2023-10-04T13:16:32.506Z,17.80
2023-10-04T13:19:04.237Z,17.97
2023-10-04T13:21:36.439Z,17.79
2023-10-04T13:24:07.999Z,17.87
2023-10-04T13:26:39.878Z,17.96
2023-10-04T13:29:11.425Z,18.24
2023-10-04T13:31:43.483Z,18.52
2023-10-04T13:34:15.062Z,18.83
2023-10-04T13:36:46.625Z,18.64
2023-10-04T13:39:18.165Z,18.82
2023-10-04T13:41:49.730Z,19.08
2023-10-04T13:44:21.226Z,18.94
2023-10-04T13:46:53.016Z,19.29
2023-10-04T13:49:24.558Z,19.16
2023-10-04T13:51:56.608Z,18.80
2023-10-04T13:54:28.521Z,18.92
2023-10-04T13:57:00.029Z,19.04
2023-10-04T13:59:31.962Z,19.43
2023-10-04T14:02:03.603Z,19.47
2023-10-04T14:04:35.541Z,19.59
2023-10-04T14:07:07.069Z,19.06
2023-10-04T14:09:38.785Z,18.76
2023-10-04T14:12:10.321Z,18.50
2023-10-04T14:14:42.191Z,19.18
2023-10-04T14:17:13.685Z,19.45
2023-10-04T14:19:45.189Z,19.01
2023-10-04T14:22:16.977Z,19.26
2023-10-04T14:24:48.668Z,18.67
2023-10-04T14:27:20.699Z,19.16
2023-10-04T14:29:52.270Z,19.11
2023-10-04T14:32:24.164Z,19.42
2023-10-04T14:34:57.441Z,18.54
2023-10-04T14:37:29.512Z,18.67
2023-10-04T14:40:01.033Z,18.45
2023-10-04T14:42:32.858Z,17.87
2023-10-04T14:45:04.377Z,17.78
2023-10-04T14:47:36.300Z,17.44
2023-10-04T14:50:07.804Z,17.25
2023-10-04T14:52:39.569Z,17.28
2023-10-04T14:55:11.317Z,17.25
2023-10-04T14:57:42.875Z,17.29
2023-10-04T15:00:14.735Z,17.22
2023-10-04T15:02:46.335Z,17.06
2023-10-04T15:05:18.500Z,16.84
2023-10-04T15:07:50.193Z,16.85
2023-10-04T15:10:22.056Z,16.81
2023-10-04T15:12:53.634Z,16.87
2023-10-04T15:15:25.478Z,16.71
2023-10-04T15:17:57.044Z,16.67
2023-10-04T15:20:28.577Z,16.56
2023-10-04T15:23:00.279Z,16.71
2023-10-04T15:25:32.097Z,16.81
2023-10-04T15:28:03.904Z,16.89
2023-10-04T15:30:35.460Z,16.96
2023-10-04T15:33:07.529Z,16.90
2023-10-04T15:35:39.055Z,17.00
2023-10-04T15:38:10.766Z,16.74
2023-10-04T15:40:42.258Z,16.77
2023-10-04T15:43:14.216Z,16.68
2023-10-04T15:45:45.754Z,16.56
2023-10-04T15:48:17.840Z,16.47
2023-10-04T15:50:49.341Z,16.52
2023-10-04T15:53:21.199Z,16.46
2023-10-04T15:55:52.685Z,16.37
2023-10-04T15:58:24.506Z,16.39
2023-10-04T16:00:56.081Z,16.29
2023-10-04T16:03:27.747Z,16.26
2023-10-04T16:05:59.697Z,16.19
2023-10-04T16:08:31.187Z,16.07
2023-10-04T16:11:03.033Z,15.97
2023-10-04T16:13:34.647Z,15.91
2023-10-04T16:16:06.490Z,15.81
2023-10-04T16:18:38.121Z,15.77
2023-10-04T16:21:10.027Z,15.73
2023-10-04T16:23:41.881Z,15.61
2023-10-04T16:26:13.950Z,15.53
2023-10-04T16:28:45.626Z,15.50
2023-10-04T16:31:17.182Z,15.50
2023-10-04T16:33:48.836Z,15.43
2023-10-04T16:36:20.332Z,15.43
2023-10-04T16:38:51.869Z,15.37
2023-10-04T16:41:23.505Z,15.27
2023-10-04T16:43:55.347Z,15.24
2023-10-04T16:46:26.900Z,15.18
2023-10-04T16:48:58.489Z,15.08
2023-10-04T16:51:30.103Z,15.08
2023-10-04T16:54:01.914Z,15.02
2023-10-04T16:56:33.786Z,14.98
2023-10-04T16:59:05.287Z,14.92
2023-10-04T17:01:37.124Z,14.90
2023-10-04T17:04:08.802Z,14.85
2023-10-04T17:06:40.853Z,14.85
2023-10-04T17:09:12.356Z,14.80
2023-10-04T17:11:44.194Z,14.75
2023-10-04T17:14:15.710Z,14.68
2023-10-04T17:16:47.270Z,14.62
2023-10-04T17:19:18.840Z,14.62
2023-10-04T17:21:50.414Z,14.58
2023-10-04T17:24:22.267Z,14.58
2023-10-04T17:26:54.148Z,14.55
2023-10-04T17:29:25.889Z,14.50
2023-10-04T17:31:57.469Z,14.51
2023-10-04T17:34:29.423Z,14.48
2023-10-04T17:37:00.997Z,14.49
2023-10-04T17:39:33.104Z,14.46
2023-10-04T17:42:04.704Z,14.43
2023-10-04T17:44:36.537Z,14.38
2023-10-04T17:47:08.026Z,14.33
2023-10-04T17:49:39.738Z,14.37
2023-10-04T17:52:11.276Z,14.35
2023-10-04T17:54:42.831Z,14.32
2023-10-04T17:57:14.438Z,14.33
2023-10-04T17:59:45.982Z,14.31
2023-10-04T18:02:17.882Z,14.34
2023-10-04T18:04:49.520Z,14.33
2023-10-04T18:07:21.079Z,14.31
2023-10-04T18:09:52.595Z,14.28
2023-10-04T18:12:24.592Z,14.31
2023-10-04T18:14:56.075Z,14.29
2023-10-04T18:17:27.800Z,14.26
2023-10-04T18:19:59.329Z,14.30
2023-10-04T18:22:31.184Z,14.29
2023-10-04T18:25:02.738Z,14.25
2023-10-04T18:27:34.384Z,14.26
2023-10-04T18:30:06.236Z,14.22
2023-10-04T18:32:37.923Z,14.20
2023-10-04T18:35:09.835Z,14.17
2023-10-04T18:37:41.380Z,14.18
2023-10-04T18:40:13.238Z,14.15
2023-10-04T18:42:44.817Z,14.14
2023-10-04T18:45:16.929Z,14.10
2023-10-04T18:47:48.453Z,14.09
2023-10-04T18:50:20.306Z,14.05
2023-10-04T18:52:51.814Z,14.07
2023-10-04T18:55:23.616Z,14.02
2023-10-04T18:57:55.598Z,14.03
2023-10-04T19:00:27.122Z,13.98
2023-10-04T19:02:59.070Z,13.95
2023-10-04T19:05:30.795Z,13.95
2023-10-04T19:08:02.610Z,13.95
2023-10-04T19:10:34.172Z,13.97
2023-10-04T19:13:06.098Z,13.97
2023-10-04T19:15:37.872Z,13.94
2023-10-04T19:18:09.746Z,13.92
2023-10-04T19:20:41.300Z,13.92
2023-10-04T19:23:13.302Z,13.92
2023-10-04T19:25:44.837Z,13.90
2023-10-04T19:28:16.412Z,13.88
2023-10-04T19:30:47.979Z,13.90
2023-10-04T19:33:19.553Z,13.88
2023-10-04T19:35:51.093Z,13.85
2023-10-04T19:38:22.587Z,13.81
2023-10-04T19:40:54.436Z,13.83
2023-10-04T19:43:26.079Z,13.80
2023-10-04T19:45:57.665Z,13.82
2023-10-04T19:48:29.269Z,13.77
2023-10-04T19:51:01.175Z,13.79
2023-10-04T19:53:32.692Z,13.75
2023-10-04T19:56:04.574Z,13.77
2023-10-04T19:58:36.471Z,13.73
2023-10-04T20:01:08.115Z,13.75
2023-10-04T20:03:39.893Z,13.77
2023-10-04T20:06:11.613Z,13.73
2023-10-04T20:08:43.463Z,13.20
2023-10-04T20:11:14.951Z,13.72
2023-10-04T20:13:46.490Z,13.69
2023-10-04T20:16:18.015Z,13.66
2023-10-04T20:18:51.172Z,13.68
2023-10-04T20:21:22.679Z,13.60
2023-10-04T20:23:54.465Z,13.58
2023-10-04T20:26:25.986Z,13.62
2023-10-04T20:28:57.875Z,13.56
2023-10-04T20:31:29.895Z,13.57
2023-10-04T20:34:02.245Z,13.54
2023-10-04T20:36:34.262Z,13.50
2023-10-04T20:39:05.878Z,13.51
2023-10-04T20:41:37.793Z,13.48
2023-10-04T20:44:09.309Z,13.43
2023-10-04T20:46:41.200Z,13.45
2023-10-04T20:49:12.829Z,13.45
2023-10-04T20:51:44.466Z,13.45
2023-10-04T20:54:16.020Z,13.40
2023-10-04T20:56:47.543Z,13.39
2023-10-04T20:59:19.386Z,13.40
2023-10-04T21:01:51.000Z,13.33
2023-10-04T21:04:22.972Z,13.34
2023-10-04T21:06:54.648Z,13.37
2023-10-04T21:09:26.717Z,13.38
2023-10-04T21:11:58.211Z,13.35
2023-10-04T21:14:30.039Z,13.31
2023-10-04T21:17:01.590Z,13.31
2023-10-04T21:19:33.384Z,13.26
2023-10-04T21:22:05.126Z,13.26
2023-10-04T21:24:37.039Z,13.22
2023-10-04T21:27:08.941Z,13.23
2023-10-04T21:29:40.482Z,13.21
2023-10-04T21:32:12.034Z,13.20
2023-10-04T21:34:43.544Z,13.18
2023-10-04T21:37:15.398Z,13.11
2023-10-04T21:39:46.979Z,13.14
2023-10-04T21:42:18.816Z,13.08
2023-10-04T21:44:50.320Z,12.98
2023-10-04T21:47:22.142Z,12.91
2023-10-04T21:49:53.639Z,12.82
2023-10-04T21:52:25.456Z,12.74
2023-10-04T21:54:57.362Z,12.67
2023-10-04T21:57:29.266Z,12.63
2023-10-04T22:00:00.787Z,12.53
2023-10-04T22:02:32.310Z,12.50
2023-10-04T22:05:04.208Z,12.53
2023-10-04T22:07:35.785Z,12.49
2023-10-04T22:10:07.718Z,12.58
2023-10-04T22:12:39.359Z,12.61
2023-10-04T22:15:11.219Z,12.61
2023-10-04T22:17:42.764Z,12.65
2023-10-04T22:20:14.674Z,12.64
2023-10-04T22:22:46.220Z,12.63
2023-10-04T22:25:18.088Z,12.64
2023-10-04T22:27:49.646Z,12.65
2023-10-04T22:30:21.599Z,12.61
2023-10-04T22:32:53.521Z,12.57
2023-10-04T22:35:25.343Z,12.59
2023-10-04T22:37:57.413Z,12.50
2023-10-04T22:40:28.951Z,12.53
2023-10-04T22:43:00.806Z,12.49
2023-10-04T22:45:32.315Z,12.47
2023-10-04T22:48:04.192Z,12.42
2023-10-04T22:50:35.755Z,12.43
2023-10-04T22:53:07.617Z,12.44
2023-10-04T22:55:39.640Z,12.43
2023-10-04T22:58:11.592Z,12.35
2023-10-04T23:00:43.562Z,12.38
2023-10-04T23:03:15.378Z,12.34
2023-10-04T23:05:47.580Z,12.32
2023-10-04T23:08:19.078Z,12.24
2023-10-04T23:10:50.626Z,12.21
2023-10-04T23:13:22.154Z,12.18
2023-10-04T23:15:54.082Z,12.12
2023-10-04T23:18:25.650Z,12.07
2023-10-04T23:20:57.592Z,12.05
2023-10-04T23:23:29.158Z,11.52
2023-10-04T23:26:00.854Z,11.96
2023-10-04T23:28:32.622Z,11.96
2023-10-04T23:31:04.189Z,11.93
2023-10-04T23:33:36.062Z,11.97
2023-10-04T23:36:07.552Z,11.92
2023-10-04T23:38:39.447Z,11.87
2023-10-04T23:41:10.936Z,11.85
2023-10-04T23:43:42.837Z,11.83
2023-10-04T23:46:14.371Z,11.78
2023-10-04T23:48:46.012Z,11.70
2023-10-04T23:51:17.507Z,11.70
2023-10-04T23:53:49.033Z,11.65
2023-10-04T23:56:20.892Z,11.57
2023-10-04T23:58:52.836Z,11.45
